KTEB/TEB METAR and TAF weather

Enter ICAO airport designator
Station Type Date Time Source
KTEB METAR 2019/07/17 18:51 UTC NOAA

KTEB 171851Z 19009G21KT 10SM SCT050 BKN055 34/23 A2986 RMK AO2 RAB03E19 SLP110 P0000 T03440228


Station Type Date Time Source
KTEB Decoded METAR 2019/07/17 18:51 UTC NOAA

TETERBORO AIRPORT, NJ, United States (KTEB) 40-52N 74-03W 7M
Jul 17, 2019 - 02:51 PM EDT / 2019.07.17 1851 UTC
Wind: from the S (190 degrees) at 10 MPH (9 KT) gusting to 24 MPH (21 KT):0
Visibility: 10 mile(s):0
Sky conditions: mostly cloudy
Precipitation last hour: A trace
Temperature: 93.9 F (34.4 C)
Heat index: 103.3 F (39.6 C):1
Dew Point: 73.0 F (22.8 C)
Relative Humidity: 51%
Pressure (altimeter): 29.86 in. Hg (1011 hPa)
ob: KTEB 171851Z 19009G21KT 10SM SCT050 BKN055 34/23 A2986 RMK AO2 RAB03E19 SLP110 P0000 T03440228
cycle: 19

Station Type Date Time Source
KTEB TAF 2019/07/17 18:27 UTC NOAA

TAF KTEB 171725Z 1718/1824 22008KT P6SM FEW060 BKN250
FM171900 23011G17KT P6SM VCTS SCT040CB BKN090
TEMPO 1800/1804 27012G27KT 2SM +TSRA BKN025CB
FM180400 VRB04KT 6SM -SHRA BKN020 OVC040
FM180700 06004KT 4SM -SHRA BR OVC010
FM181000 09006KT 5SM -SHRA BR OVC015
FM181200 09004KT 2SM -RA BR OVC007
FM181700 10005KT 2SM -SHRA BR OVC015

Example: see airport list